createdAt,value
2023-01-15T00:01:24.668Z,0.60
2023-01-15T00:03:52.297Z,0.50
2023-01-15T00:06:20.735Z,0.43
2023-01-15T00:08:48.143Z,0.50
2023-01-15T00:11:15.425Z,0.47
2023-01-15T00:13:42.996Z,0.50
2023-01-15T00:16:12.306Z,0.67
2023-01-15T00:18:40.940Z,0.50
2023-01-15T00:21:11.157Z,0.47
2023-01-15T00:23:56.859Z,0.30
2023-01-15T00:26:46.606Z,0.40
2023-01-15T00:29:15.215Z,0.40
2023-01-15T00:31:44.204Z,0.33
2023-01-15T00:34:12.398Z,0.30
2023-01-15T00:36:40.243Z,0.57
2023-01-15T00:39:07.271Z,0.50
2023-01-15T00:41:34.344Z,0.40
2023-01-15T00:44:02.437Z,0.40
2023-01-15T00:46:29.584Z,0.30
2023-01-15T00:48:56.499Z,0.30
2023-01-15T00:51:24.848Z,0.40
2023-01-15T00:53:52.010Z,0.43
2023-01-15T00:56:18.970Z,0.37
2023-01-15T00:58:47.792Z,0.37
2023-01-15T01:01:15.372Z,0.30
2023-01-15T01:03:43.026Z,0.30
2023-01-15T01:06:11.219Z,0.60
2023-01-15T01:08:39.457Z,0.40
2023-01-15T01:11:08.918Z,0.30
2023-01-15T01:13:37.077Z,0.37
2023-01-15T01:16:04.988Z,0.40
2023-01-15T01:18:31.867Z,0.30
2023-01-15T01:20:58.835Z,0.40
2023-01-15T01:23:25.728Z,0.60
2023-01-15T01:25:53.930Z,0.50
2023-01-15T01:28:21.945Z,0.30
2023-01-15T01:30:48.781Z,0.30
2023-01-15T01:33:15.880Z,0.53
2023-01-15T01:35:48.332Z,0.33
2023-01-15T01:38:15.204Z,0.20
2023-01-15T01:40:42.111Z,0.30
2023-01-15T01:43:19.192Z,0.40
2023-01-15T01:45:46.208Z,0.30
2023-01-15T01:48:15.955Z,0.30
2023-01-15T01:50:43.701Z,0.30
2023-01-15T01:53:17.293Z,0.30
2023-01-15T01:55:44.678Z,0.40
2023-01-15T01:58:14.878Z,0.20
2023-01-15T02:00:46.128Z,0.40
2023-01-15T02:03:13.441Z,0.30
2023-01-15T02:05:43.970Z,0.20
2023-01-15T02:08:10.846Z,0.30
2023-01-15T02:10:37.951Z,0.20
2023-01-15T02:13:19.781Z,0.70
2023-01-15T02:15:50.419Z,0.30
2023-01-15T02:18:24.043Z,0.20
2023-01-15T02:20:54.364Z,0.27
2023-01-15T02:23:32.772Z,0.20
2023-01-15T02:26:50.943Z,0.30
2023-01-15T02:29:23.901Z,0.23
2023-01-15T02:31:52.860Z,0.30
2023-01-15T02:34:25.426Z,0.20
2023-01-15T02:36:58.651Z,0.30
2023-01-15T02:39:29.700Z,0.30
2023-01-15T02:42:02.879Z,0.20
2023-01-15T02:44:40.406Z,0.10
2023-01-15T02:47:09.717Z,0.20
2023-01-15T02:49:38.908Z,0.20
2023-01-15T02:52:10.267Z,0.20
2023-01-15T02:54:46.407Z,0.20
2023-01-15T02:57:17.691Z,0.20
2023-01-15T02:59:52.778Z,0.20
2023-01-15T03:02:23.626Z,0.20
2023-01-15T03:04:56.374Z,0.20
2023-01-15T03:07:31.648Z,0.20
2023-01-15T03:09:59.554Z,0.10
2023-01-15T03:12:56.449Z,0.23
2023-01-15T03:15:45.728Z,0.30
2023-01-15T03:18:15.983Z,0.73
2023-01-15T03:20:50.460Z,0.33
2023-01-15T03:23:19.227Z,0.30
2023-01-15T03:25:48.869Z,0.20
2023-01-15T03:28:21.751Z,0.20
2023-01-15T03:30:49.035Z,0.30
2023-01-15T03:33:16.297Z,0.20
2023-01-15T03:35:48.105Z,0.20
2023-01-15T03:38:31.909Z,0.13
2023-01-15T03:41:07.687Z,0.30
2023-01-15T03:43:45.835Z,0.13
2023-01-15T03:46:21.165Z,0.07
2023-01-15T03:48:55.120Z,0.20
2023-01-15T03:51:28.441Z,0.23
2023-01-15T03:53:57.544Z,0.10
2023-01-15T03:56:33.975Z,0.10
2023-01-15T03:59:07.796Z,0.20
2023-01-15T04:01:51.125Z,0.20
2023-01-15T04:04:23.160Z,0.30
2023-01-15T04:06:50.576Z,0.10
2023-01-15T04:09:18.547Z,0.20
2023-01-15T04:11:47.123Z,0.23
2023-01-15T04:14:15.547Z,0.10
2023-01-15T04:16:46.396Z,0.20
2023-01-15T04:19:13.853Z,0.10
2023-01-15T04:22:01.452Z,0.10
2023-01-15T04:24:28.793Z,0.17
2023-01-15T04:26:55.719Z,0.20
2023-01-15T04:29:24.067Z,0.17
2023-01-15T04:31:53.630Z,0.10
2023-01-15T04:34:20.571Z,0.20
2023-01-15T04:36:48.094Z,0.47
2023-01-15T04:39:14.985Z,0.10
2023-01-15T04:42:00.568Z,0.03
2023-01-15T04:44:29.318Z,0.10
2023-01-15T04:46:57.554Z,0.10
2023-01-15T04:49:24.363Z,0.03
2023-01-15T04:51:51.136Z,0.10
2023-01-15T04:54:19.416Z,0.00
2023-01-15T04:56:50.333Z,0.20
2023-01-15T04:59:18.994Z,0.10
2023-01-15T05:02:01.850Z,0.10
2023-01-15T05:04:30.633Z,0.20
2023-01-15T05:06:57.603Z,0.20
2023-01-15T05:09:24.602Z,0.07
2023-01-15T05:11:51.459Z,0.00
2023-01-15T05:14:18.361Z,0.20
2023-01-15T05:16:45.290Z,0.10
2023-01-15T05:19:13.977Z,0.10
2023-01-15T05:21:42.493Z,0.07
2023-01-15T05:24:13.048Z,0.10
2023-01-15T05:26:40.438Z,0.10
2023-01-15T05:29:07.298Z,0.07
2023-01-15T05:31:34.212Z,0.10
2023-01-15T05:34:01.659Z,0.10
2023-01-15T05:36:31.817Z,0.20
2023-01-15T05:39:02.670Z,0.10
2023-01-15T05:41:48.688Z,0.20
2023-01-15T05:44:17.616Z,0.20
2023-01-15T05:46:45.001Z,0.13
2023-01-15T05:49:14.129Z,0.10
2023-01-15T05:51:43.935Z,0.10
2023-01-15T05:54:13.517Z,0.00
2023-01-15T05:56:40.799Z,0.00
2023-01-15T05:59:09.861Z,0.00
2023-01-15T06:01:36.861Z,0.00
2023-01-15T06:04:05.986Z,0.00
2023-01-15T06:06:33.832Z,0.00
2023-01-15T06:09:02.620Z,0.00
2023-01-15T06:11:29.614Z,0.00
2023-01-15T06:13:56.667Z,0.00
2023-01-15T06:16:23.902Z,0.10
2023-01-15T06:18:50.861Z,0.00
2023-01-15T06:21:17.946Z,0.00
2023-01-15T06:23:45.213Z,0.00
2023-01-15T06:26:15.526Z,0.00
2023-01-15T06:28:42.923Z,0.00
2023-01-15T06:31:12.542Z,0.07
2023-01-15T06:33:39.656Z,0.00
2023-01-15T06:36:08.859Z,0.00
2023-01-15T06:38:35.796Z,0.00
2023-01-15T06:41:25.393Z,0.20
2023-01-15T06:44:12.367Z,0.10
2023-01-15T06:47:01.496Z,0.00
2023-01-15T06:49:28.634Z,0.00
2023-01-15T06:51:55.562Z,0.10
2023-01-15T06:54:22.427Z,0.10
2023-01-15T06:56:49.284Z,0.20
2023-01-15T06:59:17.992Z,0.20
2023-01-15T07:01:45.293Z,0.10
2023-01-15T07:04:12.718Z,0.23
2023-01-15T07:06:39.925Z,0.07
2023-01-15T07:09:07.451Z,0.20
2023-01-15T07:11:34.511Z,0.10
2023-01-15T07:14:07.260Z,0.10
2023-01-15T07:16:36.481Z,0.10
2023-01-15T07:19:04.316Z,0.10
2023-01-15T07:21:31.198Z,0.17
2023-01-15T07:23:59.385Z,0.00
2023-01-15T07:26:26.470Z,0.10
2023-01-15T07:28:53.486Z,0.03
2023-01-15T07:31:20.484Z,0.00
2023-01-15T07:33:48.822Z,0.10
2023-01-15T07:36:15.802Z,0.07
2023-01-15T07:38:42.949Z,0.13
2023-01-15T07:41:28.593Z,0.10
2023-01-15T07:44:14.492Z,0.10
2023-01-15T07:46:59.964Z,0.10
2023-01-15T07:49:46.635Z,0.07
2023-01-15T07:52:13.869Z,0.10
2023-01-15T07:54:40.745Z,0.00
2023-01-15T07:57:08.198Z,0.10
2023-01-15T07:59:35.121Z,0.10
2023-01-15T08:02:02.144Z,0.10
2023-01-15T08:04:30.899Z,0.00
2023-01-15T08:07:00.398Z,0.20
2023-01-15T08:09:27.616Z,0.43
2023-01-15T08:12:13.276Z,0.20
2023-01-15T08:14:58.881Z,0.10
2023-01-15T08:17:25.767Z,0.20
2023-01-15T08:19:53.966Z,0.20
2023-01-15T08:22:20.970Z,0.20
2023-01-15T08:24:47.837Z,0.23
2023-01-15T08:27:14.806Z,0.20
2023-01-15T08:29:41.722Z,0.10
2023-01-15T08:32:08.938Z,0.20
2023-01-15T08:34:35.780Z,0.20
2023-01-15T08:37:04.142Z,0.30
2023-01-15T08:39:31.149Z,0.13
2023-01-15T08:41:58.087Z,0.10
2023-01-15T08:44:25.029Z,0.20
2023-01-15T08:46:52.205Z,0.30
2023-01-15T08:49:20.766Z,0.30
2023-01-15T08:51:51.557Z,0.20
2023-01-15T08:54:21.293Z,0.10
2023-01-15T08:56:49.838Z,0.40
2023-01-15T08:59:17.053Z,0.60
2023-01-15T09:01:45.357Z,0.40
2023-01-15T09:04:15.387Z,0.30
2023-01-15T09:06:42.871Z,0.60
2023-01-15T09:09:10.032Z,0.70
2023-01-15T09:11:40.486Z,0.60
2023-01-15T09:14:07.872Z,0.60
2023-01-15T09:16:54.766Z,0.37
2023-01-15T09:19:22.153Z,0.30
2023-01-15T09:21:49.040Z,0.40
2023-01-15T09:24:15.870Z,0.40
2023-01-15T09:26:44.153Z,0.40
2023-01-15T09:29:11.135Z,0.30
2023-01-15T09:31:38.022Z,0.27
2023-01-15T09:34:05.003Z,0.53
2023-01-15T09:36:33.882Z,0.20
2023-01-15T09:39:03.051Z,0.20
2023-01-15T09:41:57.813Z,0.50
2023-01-15T09:44:36.335Z,0.30
2023-01-15T09:47:09.145Z,0.40
2023-01-15T09:50:00.588Z,0.33
2023-01-15T09:52:43.671Z,0.80
2023-01-15T09:55:15.280Z,0.60
2023-01-15T09:57:43.418Z,0.60
2023-01-15T10:00:19.556Z,0.90
2023-01-15T10:02:49.531Z,0.50
2023-01-15T10:05:21.086Z,0.50
2023-01-15T10:07:57.057Z,0.90
2023-01-15T10:10:30.064Z,0.30
2023-01-15T10:13:02.691Z,0.20
2023-01-15T10:15:38.134Z,0.20
2023-01-15T10:18:08.171Z,0.30
2023-01-15T10:20:53.085Z,0.40
2023-01-15T10:23:32.916Z,0.30
2023-01-15T10:26:04.052Z,0.30
2023-01-15T10:28:32.412Z,0.30
2023-01-15T10:31:08.934Z,0.30
2023-01-15T10:33:51.931Z,0.40
2023-01-15T10:36:26.083Z,0.40
2023-01-15T10:39:01.898Z,0.83
2023-01-15T10:41:48.696Z,0.80
2023-01-15T10:44:18.721Z,0.60
2023-01-15T10:46:55.111Z,0.50
2023-01-15T10:49:22.617Z,0.73
2023-01-15T10:51:54.063Z,0.40
2023-01-15T10:54:28.724Z,0.30
2023-01-15T10:57:02.189Z,0.20
2023-01-15T10:59:39.400Z,0.10
2023-01-15T11:02:24.899Z,0.40
2023-01-15T11:04:52.122Z,0.10
2023-01-15T11:07:19.942Z,0.20
2023-01-15T11:09:47.188Z,0.20
2023-01-15T11:12:24.715Z,0.20
2023-01-15T11:15:10.185Z,0.20
2023-01-15T11:18:00.786Z,0.30
2023-01-15T11:20:30.820Z,0.67
2023-01-15T11:23:05.987Z,0.60
2023-01-15T11:25:33.489Z,0.40
2023-01-15T11:28:03.219Z,0.50
2023-01-15T11:30:32.274Z,0.30
2023-01-15T11:33:04.202Z,0.23
2023-01-15T11:35:33.111Z,0.10
2023-01-15T11:38:08.146Z,0.30
2023-01-15T11:40:35.082Z,0.20
2023-01-15T11:43:20.507Z,0.30
2023-01-15T11:46:07.815Z,0.67
2023-01-15T11:49:02.965Z,0.30
2023-01-15T11:51:34.315Z,0.40
2023-01-15T11:54:04.732Z,1.70
2023-01-15T11:56:34.540Z,4.33
2023-01-15T11:59:03.649Z,1.30
2023-01-15T12:01:34.823Z,0.50
2023-01-15T12:04:05.378Z,0.20
2023-01-15T12:06:36.156Z,0.33
2023-01-15T12:09:14.307Z,0.10
2023-01-15T12:11:56.545Z,0.20
2023-01-15T12:14:56.434Z,0.33
2023-01-15T12:17:37.654Z,0.23
2023-01-15T12:20:21.561Z,0.20
2023-01-15T12:23:01.655Z,0.20
2023-01-15T12:25:37.961Z,0.27
2023-01-15T12:28:10.300Z,0.20
2023-01-15T12:30:43.734Z,0.20
2023-01-15T12:33:28.519Z,0.30
2023-01-15T12:36:02.540Z,0.40
2023-01-15T12:38:42.406Z,1.00
2023-01-15T12:41:13.600Z,0.90
2023-01-15T12:44:03.675Z,0.70
2023-01-15T12:46:34.193Z,0.30
2023-01-15T12:49:09.752Z,0.57
2023-01-15T12:51:47.072Z,0.60
2023-01-15T12:54:18.951Z,0.60
2023-01-15T12:56:54.186Z,0.60
2023-01-15T12:59:27.197Z,0.70
2023-01-15T13:02:02.922Z,0.80
2023-01-15T13:04:36.998Z,0.57
2023-01-15T13:07:18.179Z,0.40
2023-01-15T13:09:50.920Z,0.47
2023-01-15T13:12:18.032Z,0.50
2023-01-15T13:14:46.715Z,0.40
2023-01-15T13:17:24.331Z,0.40
2023-01-15T13:20:05.137Z,0.30
2023-01-15T13:22:41.668Z,0.20
2023-01-15T13:25:33.327Z,0.30
2023-01-15T13:28:27.759Z,0.23
2023-01-15T13:31:05.630Z,0.40
2023-01-15T13:33:37.197Z,0.40
2023-01-15T13:36:10.754Z,0.40
2023-01-15T13:38:43.729Z,0.40
2023-01-15T13:41:16.303Z,1.00
2023-01-15T13:43:43.976Z,1.70
2023-01-15T13:46:13.348Z,3.33
2023-01-15T13:48:45.427Z,0.90
2023-01-15T13:51:27.422Z,0.70
2023-01-15T13:53:57.962Z,0.67
2023-01-15T13:56:29.702Z,0.80
2023-01-15T13:58:58.445Z,1.10
2023-01-15T14:01:31.929Z,0.77
2023-01-15T14:04:05.588Z,0.67
2023-01-15T14:06:41.238Z,0.67
2023-01-15T14:09:12.972Z,0.60
2023-01-15T14:11:47.846Z,0.87
2023-01-15T14:14:46.049Z,0.60
2023-01-15T14:17:37.599Z,0.50
2023-01-15T14:20:30.527Z,0.50
2023-01-15T14:23:08.290Z,0.80
2023-01-15T14:25:57.959Z,0.47
2023-01-15T14:29:02.406Z,0.50
2023-01-15T14:31:40.976Z,1.10
2023-01-15T14:34:16.385Z,1.03
2023-01-15T14:36:51.995Z,0.80
2023-01-15T14:39:26.701Z,0.90
2023-01-15T14:42:20.970Z,0.70
2023-01-15T14:44:55.283Z,0.60
2023-01-15T14:47:28.460Z,0.80
2023-01-15T14:50:21.859Z,0.80
2023-01-15T14:52:50.431Z,0.50
2023-01-15T14:55:19.275Z,0.80
2023-01-15T14:57:55.919Z,0.70
2023-01-15T15:00:26.215Z,1.00
2023-01-15T15:02:53.222Z,0.90
2023-01-15T15:05:22.586Z,0.40
2023-01-15T15:07:53.083Z,0.70
2023-01-15T15:10:25.233Z,0.80
2023-01-15T15:13:05.619Z,0.60
2023-01-15T15:15:42.313Z,0.40
2023-01-15T15:18:18.241Z,0.50
2023-01-15T15:20:52.930Z,1.07
2023-01-15T15:23:26.310Z,0.70
2023-01-15T15:25:57.249Z,0.63
2023-01-15T15:28:25.603Z,0.70
2023-01-15T15:30:54.782Z,0.80
2023-01-15T15:33:24.952Z,0.63
2023-01-15T15:35:55.268Z,0.70
2023-01-15T15:38:23.731Z,0.80
2023-01-15T15:40:53.056Z,0.80
2023-01-15T15:43:44.603Z,0.80
2023-01-15T15:46:43.376Z,0.63
2023-01-15T15:49:10.368Z,0.80
2023-01-15T15:51:40.116Z,0.50
2023-01-15T15:54:13.203Z,0.57
2023-01-15T15:56:44.194Z,0.67
2023-01-15T15:59:19.221Z,0.63
2023-01-15T16:01:46.343Z,0.90
2023-01-15T16:04:17.814Z,0.80
2023-01-15T16:06:45.134Z,0.60
2023-01-15T16:09:12.369Z,0.70
2023-01-15T16:11:40.777Z,0.70
2023-01-15T16:14:15.811Z,0.73
2023-01-15T16:16:46.882Z,0.80
2023-01-15T16:19:18.791Z,0.70
2023-01-15T16:21:46.408Z,0.90
2023-01-15T16:24:27.488Z,0.70
2023-01-15T16:27:01.147Z,1.00
2023-01-15T16:29:31.108Z,1.07
2023-01-15T16:32:00.005Z,0.87
2023-01-15T16:34:30.165Z,0.67
2023-01-15T16:36:58.381Z,1.00
2023-01-15T16:39:28.981Z,1.20
2023-01-15T16:42:02.260Z,1.20
2023-01-15T16:44:44.136Z,1.10
2023-01-15T16:47:22.700Z,0.60
2023-01-15T16:49:50.023Z,1.80
2023-01-15T16:52:36.357Z,0.97
2023-01-15T16:55:03.357Z,0.90
2023-01-15T16:57:33.579Z,0.70
2023-01-15T17:00:04.353Z,0.60
2023-01-15T17:02:42.861Z,0.87
2023-01-15T17:05:24.581Z,0.63
2023-01-15T17:07:54.393Z,0.80
2023-01-15T17:10:24.399Z,0.67
2023-01-15T17:12:52.025Z,0.80
2023-01-15T17:15:38.664Z,0.67
2023-01-15T17:18:29.021Z,1.10
2023-01-15T17:20:56.188Z,0.90
2023-01-15T17:23:26.810Z,1.63
2023-01-15T17:25:54.900Z,1.40
2023-01-15T17:28:24.502Z,1.40
2023-01-15T17:30:53.531Z,0.97
2023-01-15T17:33:20.910Z,0.90
2023-01-15T17:35:49.198Z,0.80
2023-01-15T17:38:17.309Z,0.90
2023-01-15T17:40:44.387Z,0.93
2023-01-15T17:43:14.929Z,1.10
2023-01-15T17:45:42.631Z,0.93
2023-01-15T17:48:09.999Z,0.80
2023-01-15T17:50:37.553Z,0.90
2023-01-15T17:53:06.007Z,1.20
2023-01-15T17:55:51.911Z,0.97
2023-01-15T17:58:37.431Z,1.20
2023-01-15T18:01:30.763Z,1.27
2023-01-15T18:04:16.659Z,0.90
2023-01-15T18:06:48.350Z,0.77
2023-01-15T18:09:18.754Z,1.10
2023-01-15T18:11:45.984Z,1.63
2023-01-15T18:14:13.191Z,1.67
2023-01-15T18:16:40.116Z,1.07
2023-01-15T18:19:07.200Z,1.07
2023-01-15T18:21:37.518Z,0.80
2023-01-15T18:24:04.788Z,1.20
2023-01-15T18:26:35.559Z,0.73
2023-01-15T18:29:02.494Z,0.93
2023-01-15T18:31:29.398Z,1.07
2023-01-15T18:33:56.320Z,0.80
2023-01-15T18:36:23.203Z,1.10
2023-01-15T18:38:50.088Z,1.37
2023-01-15T18:41:36.907Z,1.10
2023-01-15T18:44:25.621Z,1.00
2023-01-15T18:46:55.666Z,1.10
2023-01-15T18:49:22.718Z,1.00
2023-01-15T18:52:08.593Z,1.07
2023-01-15T18:54:36.102Z,1.87
2023-01-15T18:57:03.518Z,2.57
2023-01-15T18:59:32.071Z,1.40
2023-01-15T19:01:59.454Z,3.40
2023-01-15T19:04:26.845Z,2.43
2023-01-15T19:06:54.247Z,3.03
2023-01-15T19:09:24.062Z,1.70
2023-01-15T19:11:51.960Z,1.27
2023-01-15T19:14:38.424Z,1.10
2023-01-15T19:17:25.584Z,0.83
2023-01-15T19:19:52.439Z,0.90
2023-01-15T19:22:37.902Z,0.60
2023-01-15T19:25:05.688Z,0.93
2023-01-15T19:27:32.590Z,0.80
2023-01-15T19:30:00.336Z,0.73
2023-01-15T19:32:28.572Z,1.00
2023-01-15T19:34:55.445Z,0.97
2023-01-15T19:37:22.458Z,0.87
2023-01-15T19:39:49.387Z,1.07
2023-01-15T19:42:35.070Z,1.10
2023-01-15T19:45:20.466Z,1.27
2023-01-15T19:48:08.183Z,3.70
2023-01-15T19:50:36.969Z,1.30
2023-01-15T19:53:04.777Z,1.63
2023-01-15T19:55:32.839Z,1.27
2023-01-15T19:58:01.802Z,1.50
2023-01-15T20:00:29.988Z,1.40
2023-01-15T20:02:58.722Z,1.50
2023-01-15T20:05:27.431Z,1.40
2023-01-15T20:07:54.523Z,1.40
2023-01-15T20:10:23.838Z,1.70
2023-01-15T20:13:09.514Z,1.80
2023-01-15T20:15:38.276Z,1.60
2023-01-15T20:18:06.800Z,1.40
2023-01-15T20:20:34.506Z,1.67
2023-01-15T20:23:01.722Z,1.50
2023-01-15T20:25:30.206Z,1.23
2023-01-15T20:27:59.124Z,1.50
2023-01-15T20:30:26.830Z,1.47
2023-01-15T20:32:55.503Z,1.20
2023-01-15T20:35:26.651Z,1.23
2023-01-15T20:37:53.542Z,1.10
2023-01-15T20:40:24.480Z,1.10
2023-01-15T20:43:10.505Z,1.20
2023-01-15T20:45:37.566Z,1.43
2023-01-15T20:48:11.462Z,1.53
2023-01-15T20:50:41.487Z,1.13
2023-01-15T20:53:10.020Z,2.67
2023-01-15T20:55:54.856Z,1.97
2023-01-15T20:58:24.440Z,1.90
2023-01-15T21:00:52.126Z,1.20
2023-01-15T21:03:20.684Z,1.10
2023-01-15T21:05:49.050Z,1.20
2023-01-15T21:08:15.965Z,1.00
2023-01-15T21:10:42.964Z,1.20
2023-01-15T21:13:10.230Z,1.20
2023-01-15T21:15:37.190Z,1.10
2023-01-15T21:18:04.342Z,1.00
2023-01-15T21:20:31.197Z,1.57
2023-01-15T21:22:59.432Z,1.20
2023-01-15T21:25:26.338Z,1.10
2023-01-15T21:27:53.219Z,0.90
2023-01-15T21:30:20.972Z,1.40
2023-01-15T21:32:48.698Z,1.33
2023-01-15T21:35:15.929Z,1.27
2023-01-15T21:37:42.846Z,1.47
2023-01-15T21:40:12.355Z,1.43
2023-01-15T21:42:57.878Z,1.00
2023-01-15T21:45:26.338Z,1.30
2023-01-15T21:47:53.263Z,1.07
2023-01-15T21:50:20.508Z,1.70
2023-01-15T21:52:48.433Z,0.87
2023-01-15T21:55:16.876Z,1.00
2023-01-15T21:57:43.956Z,0.93
2023-01-15T22:00:11.917Z,1.10
2023-01-15T22:02:39.053Z,1.03
2023-01-15T22:05:08.596Z,1.00
2023-01-15T22:07:35.481Z,0.90
2023-01-15T22:10:02.548Z,1.03
2023-01-15T22:12:30.838Z,1.03
2023-01-15T22:14:57.740Z,0.83
2023-01-15T22:17:24.656Z,0.80
2023-01-15T22:19:51.656Z,1.00
2023-01-15T22:22:18.832Z,1.00
2023-01-15T22:24:45.783Z,0.80
2023-01-15T22:27:15.624Z,1.37
2023-01-15T22:29:43.983Z,0.97
2023-01-15T22:32:13.166Z,0.93
2023-01-15T22:34:40.151Z,0.83
2023-01-15T22:37:07.215Z,0.80
2023-01-15T22:39:35.099Z,0.90
2023-01-15T22:42:20.547Z,0.80
2023-01-15T22:44:49.680Z,0.70
2023-01-15T22:47:17.169Z,0.70
2023-01-15T22:49:44.031Z,1.37
2023-01-15T22:52:11.268Z,0.80
2023-01-15T22:54:38.387Z,0.93
2023-01-15T22:57:05.405Z,0.90
2023-01-15T22:59:32.213Z,0.63
2023-01-15T23:02:00.525Z,1.10
2023-01-15T23:04:27.569Z,0.70
2023-01-15T23:06:54.410Z,0.70
2023-01-15T23:09:22.937Z,0.90
2023-01-15T23:11:51.436Z,1.03
2023-01-15T23:14:19.778Z,0.73
2023-01-15T23:16:46.635Z,0.90
2023-01-15T23:19:14.880Z,0.90
2023-01-15T23:21:41.721Z,0.90
2023-01-15T23:24:09.050Z,0.90
2023-01-15T23:26:36.283Z,0.67
2023-01-15T23:29:03.705Z,0.80
2023-01-15T23:31:30.883Z,0.67
2023-01-15T23:33:58.393Z,0.60
2023-01-15T23:36:26.617Z,0.73
2023-01-15T23:38:53.800Z,0.83
2023-01-15T23:41:42.865Z,0.60
2023-01-15T23:44:33.038Z,0.67
2023-01-15T23:46:59.955Z,0.60
2023-01-15T23:49:26.865Z,0.60
2023-01-15T23:51:55.135Z,0.70
2023-01-15T23:54:23.740Z,0.70
2023-01-15T23:56:50.704Z,0.90
2023-01-15T23:59:17.676Z,0.80
